sensor_id;sensor_type;location;lat;lon;timestamp;P1;durP1;ratioP1;P2;durP2;ratioP2
8562;SDS011;16392;52.508;13.468;2022-08-02T00:00:14;449.50;;;165.60;;
8562;SDS011;16392;52.508;13.468;2022-08-02T00:02:41;454.55;;;171.43;;
8562;SDS011;16392;52.508;13.468;2022-08-02T00:05:09;454.35;;;175.40;;
8562;SDS011;16392;52.508;13.468;2022-08-02T00:07:38;450.58;;;165.63;;
8562;SDS011;16392;52.508;13.468;2022-08-02T00:10:06;454.63;;;173.25;;
8562;SDS011;16392;52.508;13.468;2022-08-02T00:12:34;459.60;;;188.52;;
8562;SDS011;16392;52.508;13.468;2022-08-02T00:15:00;454.67;;;174.35;;
8562;SDS011;16392;52.508;13.468;2022-08-02T00:17:27;459.95;;;186.20;;
8562;SDS011;16392;52.508;13.468;2022-08-02T00:19:54;452.48;;;173.43;;
8562;SDS011;16392;52.508;13.468;2022-08-02T00:22:21;459.80;;;177.68;;
8562;SDS011;16392;52.508;13.468;2022-08-02T00:24:49;452.80;;;174.32;;
8562;SDS011;16392;52.508;13.468;2022-08-02T00:27:15;451.92;;;176.15;;
8562;SDS011;16392;52.508;13.468;2022-08-02T00:29:42;460.40;;;188.73;;
8562;SDS011;16392;52.508;13.468;2022-08-02T00:32:08;457.55;;;177.10;;
8562;SDS011;16392;52.508;13.468;2022-08-02T00:34:35;453.77;;;176.60;;
8562;SDS011;16392;52.508;13.468;2022-08-02T00:37:01;458.52;;;185.43;;
8562;SDS011;16392;52.508;13.468;2022-08-02T00:39:28;453.95;;;179.68;;
8562;SDS011;16392;52.508;13.468;2022-08-02T00:41:56;453.33;;;175.02;;
8562;SDS011;16392;52.508;13.468;2022-08-02T00:44:23;456.95;;;179.70;;
8562;SDS011;16392;52.508;13.468;2022-08-02T00:46:49;450.35;;;165.27;;
8562;SDS011;16392;52.508;13.468;2022-08-02T00:49:16;453.95;;;170.13;;
8562;SDS011;16392;52.508;13.468;2022-08-02T00:51:43;453.35;;;177.82;;
8562;SDS011;16392;52.508;13.468;2022-08-02T00:54:09;453.88;;;178.95;;
8562;SDS011;16392;52.508;13.468;2022-08-02T00:56:36;452.73;;;167.57;;
8562;SDS011;16392;52.508;13.468;2022-08-02T00:59:04;454.40;;;175.07;;
8562;SDS011;16392;52.508;13.468;2022-08-02T01:01:31;452.98;;;176.32;;
8562;SDS011;16392;52.508;13.468;2022-08-02T01:04:04;451.98;;;168.27;;
8562;SDS011;16392;52.508;13.468;2022-08-02T01:06:31;451.15;;;165.75;;
8562;SDS011;16392;52.508;13.468;2022-08-02T01:08:58;454.60;;;176.10;;
8562;SDS011;16392;52.508;13.468;2022-08-02T01:11:26;460.38;;;193.13;;
8562;SDS011;16392;52.508;13.468;2022-08-02T01:13:53;449.58;;;161.65;;
8562;SDS011;16392;52.508;13.468;2022-08-02T01:16:25;454.63;;;175.27;;
8562;SDS011;16392;52.508;13.468;2022-08-02T01:18:58;449.75;;;165.50;;
8562;SDS011;16392;52.508;13.468;2022-08-02T01:21:32;455.35;;;168.38;;
8562;SDS011;16392;52.508;13.468;2022-08-02T01:24:10;454.10;;;175.50;;
8562;SDS011;16392;52.508;13.468;2022-08-02T01:26:49;458.42;;;179.40;;
8562;SDS011;16392;52.508;13.468;2022-08-02T01:29:23;454.55;;;173.63;;
8562;SDS011;16392;52.508;13.468;2022-08-02T01:31:54;454.27;;;165.23;;
8562;SDS011;16392;52.508;13.468;2022-08-02T01:34:27;457.58;;;182.18;;
8562;SDS011;16392;52.508;13.468;2022-08-02T01:36:59;453.02;;;169.10;;
8562;SDS011;16392;52.508;13.468;2022-08-02T01:39:32;452.90;;;171.82;;
8562;SDS011;16392;52.508;13.468;2022-08-02T01:42:01;452.08;;;168.05;;
8562;SDS011;16392;52.508;13.468;2022-08-02T01:44:31;454.73;;;174.65;;
8562;SDS011;16392;52.508;13.468;2022-08-02T01:47:02;452.98;;;167.85;;
8562;SDS011;16392;52.508;13.468;2022-08-02T01:49:32;456.83;;;179.13;;
8562;SDS011;16392;52.508;13.468;2022-08-02T01:52:00;454.83;;;177.48;;
8562;SDS011;16392;52.508;13.468;2022-08-02T01:54:49;450.38;;;166.13;;
8562;SDS011;16392;52.508;13.468;2022-08-02T01:57:21;451.73;;;161.75;;
8562;SDS011;16392;52.508;13.468;2022-08-02T01:59:53;452.58;;;170.10;;
8562;SDS011;16392;52.508;13.468;2022-08-02T02:02:24;450.35;;;163.43;;
8562;SDS011;16392;52.508;13.468;2022-08-02T02:04:53;455.70;;;178.55;;
8562;SDS011;16392;52.508;13.468;2022-08-02T02:07:22;454.90;;;169.95;;
8562;SDS011;16392;52.508;13.468;2022-08-02T02:09:50;455.52;;;173.35;;
8562;SDS011;16392;52.508;13.468;2022-08-02T02:12:17;457.40;;;172.43;;
8562;SDS011;16392;52.508;13.468;2022-08-02T02:14:44;452.02;;;168.77;;
8562;SDS011;16392;52.508;13.468;2022-08-02T02:17:13;451.83;;;166.25;;
8562;SDS011;16392;52.508;13.468;2022-08-02T02:19:41;451.92;;;167.05;;
8562;SDS011;16392;52.508;13.468;2022-08-02T02:22:09;454.77;;;177.35;;
8562;SDS011;16392;52.508;13.468;2022-08-02T02:24:35;452.40;;;171.13;;
8562;SDS011;16392;52.508;13.468;2022-08-02T02:27:02;454.88;;;179.38;;
8562;SDS011;16392;52.508;13.468;2022-08-02T02:29:32;455.27;;;173.70;;
8562;SDS011;16392;52.508;13.468;2022-08-02T02:32:00;453.23;;;167.40;;
8562;SDS011;16392;52.508;13.468;2022-08-02T02:34:32;454.70;;;174.55;;
8562;SDS011;16392;52.508;13.468;2022-08-02T02:37:02;454.77;;;176.15;;
8562;SDS011;16392;52.508;13.468;2022-08-02T02:39:31;453.02;;;170.05;;
8562;SDS011;16392;52.508;13.468;2022-08-02T02:42:00;449.55;;;164.75;;
8562;SDS011;16392;52.508;13.468;2022-08-02T02:44:28;453.67;;;173.48;;
8562;SDS011;16392;52.508;13.468;2022-08-02T02:46:56;452.52;;;163.85;;
8562;SDS011;16392;52.508;13.468;2022-08-02T02:49:23;450.75;;;168.98;;
8562;SDS011;16392;52.508;13.468;2022-08-02T02:51:53;450.35;;;163.80;;
8562;SDS011;16392;52.508;13.468;2022-08-02T02:54:20;451.42;;;170.95;;
8562;SDS011;16392;52.508;13.468;2022-08-02T02:56:48;454.98;;;172.63;;
8562;SDS011;16392;52.508;13.468;2022-08-02T02:59:15;452.02;;;169.18;;
8562;SDS011;16392;52.508;13.468;2022-08-02T03:01:42;458.10;;;171.90;;
8562;SDS011;16392;52.508;13.468;2022-08-02T03:04:10;452.40;;;167.35;;
8562;SDS011;16392;52.508;13.468;2022-08-02T03:06:39;455.85;;;174.27;;
8562;SDS011;16392;52.508;13.468;2022-08-02T03:09:08;452.63;;;169.63;;
8562;SDS011;16392;52.508;13.468;2022-08-02T03:11:35;457.60;;;168.23;;
8562;SDS011;16392;52.508;13.468;2022-08-02T03:14:03;452.27;;;169.07;;
8562;SDS011;16392;52.508;13.468;2022-08-02T03:16:34;450.35;;;162.75;;
8562;SDS011;16392;52.508;13.468;2022-08-02T03:19:07;450.33;;;162.98;;
8562;SDS011;16392;52.508;13.468;2022-08-02T03:21:34;452.30;;;162.38;;
8562;SDS011;16392;52.508;13.468;2022-08-02T03:24:00;452.73;;;175.45;;
8562;SDS011;16392;52.508;13.468;2022-08-02T03:26:28;451.70;;;167.57;;
8562;SDS011;16392;52.508;13.468;2022-08-02T03:28:55;449.70;;;165.38;;
8562;SDS011;16392;52.508;13.468;2022-08-02T03:31:22;451.73;;;163.93;;
8562;SDS011;16392;52.508;13.468;2022-08-02T03:33:48;453.30;;;167.65;;
8562;SDS011;16392;52.508;13.468;2022-08-02T03:36:16;455.52;;;174.43;;
8562;SDS011;16392;52.508;13.468;2022-08-02T03:38:46;452.52;;;167.35;;
8562;SDS011;16392;52.508;13.468;2022-08-02T03:41:15;454.67;;;171.73;;
8562;SDS011;16392;52.508;13.468;2022-08-02T03:43:45;453.25;;;168.90;;
8562;SDS011;16392;52.508;13.468;2022-08-02T03:46:13;451.13;;;162.23;;
8562;SDS011;16392;52.508;13.468;2022-08-02T03:48:42;451.38;;;167.98;;
8562;SDS011;16392;52.508;13.468;2022-08-02T03:51:09;453.10;;;165.00;;
8562;SDS011;16392;52.508;13.468;2022-08-02T03:53:36;450.02;;;160.15;;
8562;SDS011;16392;52.508;13.468;2022-08-02T03:56:03;457.75;;;166.85;;
8562;SDS011;16392;52.508;13.468;2022-08-02T03:58:31;448.27;;;157.73;;
8562;SDS011;16392;52.508;13.468;2022-08-02T04:00:59;448.90;;;158.95;;
8562;SDS011;16392;52.508;13.468;2022-08-02T04:03:26;451.60;;;160.23;;
8562;SDS011;16392;52.508;13.468;2022-08-02T04:05:53;450.98;;;156.57;;
8562;SDS011;16392;52.508;13.468;2022-08-02T04:08:20;451.52;;;159.38;;
8562;SDS011;16392;52.508;13.468;2022-08-02T04:10:47;450.00;;;158.13;;
8562;SDS011;16392;52.508;13.468;2022-08-02T04:13:32;449.92;;;150.45;;
8562;SDS011;16392;52.508;13.468;2022-08-02T04:16:03;452.90;;;166.45;;
8562;SDS011;16392;52.508;13.468;2022-08-02T04:18:38;450.48;;;162.45;;
8562;SDS011;16392;52.508;13.468;2022-08-02T04:21:08;454.50;;;176.15;;
8562;SDS011;16392;52.508;13.468;2022-08-02T04:23:40;458.70;;;179.77;;
8562;SDS011;16392;52.508;13.468;2022-08-02T04:26:09;460.48;;;196.35;;
8562;SDS011;16392;52.508;13.468;2022-08-02T04:28:36;453.42;;;178.75;;
8562;SDS011;16392;52.508;13.468;2022-08-02T04:31:05;457.95;;;187.55;;
8562;SDS011;16392;52.508;13.468;2022-08-02T04:33:32;463.10;;;203.82;;
8562;SDS011;16392;52.508;13.468;2022-08-02T04:36:00;456.92;;;186.25;;
8562;SDS011;16392;52.508;13.468;2022-08-02T04:38:27;457.00;;;185.57;;
8562;SDS011;16392;52.508;13.468;2022-08-02T04:40:54;456.88;;;180.15;;
8562;SDS011;16392;52.508;13.468;2022-08-02T04:43:21;461.52;;;182.57;;
8562;SDS011;16392;52.508;13.468;2022-08-02T04:45:50;457.27;;;185.55;;
8562;SDS011;16392;52.508;13.468;2022-08-02T04:48:19;461.63;;;189.52;;
8562;SDS011;16392;52.508;13.468;2022-08-02T04:50:46;457.35;;;182.82;;
8562;SDS011;16392;52.508;13.468;2022-08-02T04:53:13;459.08;;;187.48;;
8562;SDS011;16392;52.508;13.468;2022-08-02T04:55:40;458.15;;;186.60;;
8562;SDS011;16392;52.508;13.468;2022-08-02T04:58:06;458.92;;;186.73;;
8562;SDS011;16392;52.508;13.468;2022-08-02T05:00:33;461.02;;;187.25;;
8562;SDS011;16392;52.508;13.468;2022-08-02T05:03:00;456.45;;;185.90;;
8562;SDS011;16392;52.508;13.468;2022-08-02T05:05:28;457.35;;;181.95;;
8562;SDS011;16392;52.508;13.468;2022-08-02T05:07:57;462.20;;;190.02;;
8562;SDS011;16392;52.508;13.468;2022-08-02T05:10:24;461.35;;;196.88;;
8562;SDS011;16392;52.508;13.468;2022-08-02T05:12:51;463.27;;;194.00;;
8562;SDS011;16392;52.508;13.468;2022-08-02T05:15:17;465.90;;;199.52;;
8562;SDS011;16392;52.508;13.468;2022-08-02T05:17:45;462.05;;;206.38;;
8562;SDS011;16392;52.508;13.468;2022-08-02T05:20:12;462.83;;;192.05;;
8562;SDS011;16392;52.508;13.468;2022-08-02T05:22:41;462.13;;;200.10;;
8562;SDS011;16392;52.508;13.468;2022-08-02T05:25:08;460.63;;;190.20;;
8562;SDS011;16392;52.508;13.468;2022-08-02T05:27:35;464.98;;;209.40;;
8562;SDS011;16392;52.508;13.468;2022-08-02T05:30:04;469.88;;;220.02;;
8562;SDS011;16392;52.508;13.468;2022-08-02T05:32:31;468.33;;;219.57;;
8562;SDS011;16392;52.508;13.468;2022-08-02T05:34:59;463.67;;;208.82;;
8562;SDS011;16392;52.508;13.468;2022-08-02T05:37:26;469.52;;;216.35;;
8562;SDS011;16392;52.508;13.468;2022-08-02T05:39:54;464.38;;;198.95;;
8562;SDS011;16392;52.508;13.468;2022-08-02T05:42:21;471.75;;;217.25;;
8562;SDS011;16392;52.508;13.468;2022-08-02T05:44:47;475.98;;;230.65;;
8562;SDS011;16392;52.508;13.468;2022-08-02T05:47:14;466.85;;;212.88;;
8562;SDS011;16392;52.508;13.468;2022-08-02T05:49:41;470.30;;;221.15;;
8562;SDS011;16392;52.508;13.468;2022-08-02T05:52:10;475.23;;;233.80;;
8562;SDS011;16392;52.508;13.468;2022-08-02T05:54:44;475.75;;;246.30;;
8562;SDS011;16392;52.508;13.468;2022-08-02T05:57:20;483.15;;;260.02;;
8562;SDS011;16392;52.508;13.468;2022-08-02T06:00:00;491.52;;;293.88;;
8562;SDS011;16392;52.508;13.468;2022-08-02T06:02:35;502.40;;;330.77;;
8562;SDS011;16392;52.508;13.468;2022-08-02T06:05:11;505.05;;;365.00;;
8562;SDS011;16392;52.508;13.468;2022-08-02T06:07:40;514.08;;;400.02;;
8562;SDS011;16392;52.508;13.468;2022-08-02T06:10:10;522.72;;;449.23;;
8562;SDS011;16392;52.508;13.468;2022-08-02T06:12:44;526.60;;;462.17;;
8562;SDS011;16392;52.508;13.468;2022-08-02T06:15:14;543.95;;;485.15;;
8562;SDS011;16392;52.508;13.468;2022-08-02T06:17:44;554.20;;;495.55;;
8562;SDS011;16392;52.508;13.468;2022-08-02T06:20:15;593.45;;;533.83;;
8562;SDS011;16392;52.508;13.468;2022-08-02T06:22:48;617.03;;;556.88;;
8562;SDS011;16392;52.508;13.468;2022-08-02T06:25:16;656.00;;;595.10;;
8562;SDS011;16392;52.508;13.468;2022-08-02T06:27:52;648.80;;;587.83;;
8562;SDS011;16392;52.508;13.468;2022-08-02T06:30:26;644.72;;;584.15;;
8562;SDS011;16392;52.508;13.468;2022-08-02T06:32:54;653.53;;;592.65;;
8562;SDS011;16392;52.508;13.468;2022-08-02T06:35:28;684.42;;;622.42;;
8562;SDS011;16392;52.508;13.468;2022-08-02T06:38:00;676.15;;;614.92;;
8562;SDS011;16392;52.508;13.468;2022-08-02T06:40:29;699.03;;;636.97;;
8562;SDS011;16392;52.508;13.468;2022-08-02T06:43:00;717.80;;;655.05;;
8562;SDS011;16392;52.508;13.468;2022-08-02T06:45:37;737.55;;;674.75;;
8562;SDS011;16392;52.508;13.468;2022-08-02T06:48:04;749.30;;;686.03;;
8562;SDS011;16392;52.508;13.468;2022-08-02T06:50:31;751.17;;;688.15;;
8562;SDS011;16392;52.508;13.468;2022-08-02T06:52:58;734.78;;;672.00;;
8562;SDS011;16392;52.508;13.468;2022-08-02T06:55:25;737.50;;;674.85;;
8562;SDS011;16392;52.508;13.468;2022-08-02T06:57:53;745.97;;;683.25;;
8562;SDS011;16392;52.508;13.468;2022-08-02T07:00:21;727.13;;;664.70;;
8562;SDS011;16392;52.508;13.468;2022-08-02T07:02:48;749.63;;;686.17;;
8562;SDS011;16392;52.508;13.468;2022-08-02T07:05:16;734.75;;;671.70;;
8562;SDS011;16392;52.508;13.468;2022-08-02T07:07:43;731.85;;;669.33;;
8562;SDS011;16392;52.508;13.468;2022-08-02T07:10:09;736.30;;;673.65;;
8562;SDS011;16392;52.508;13.468;2022-08-02T07:12:37;743.85;;;681.15;;
8562;SDS011;16392;52.508;13.468;2022-08-02T07:15:05;761.72;;;698.63;;
8562;SDS011;16392;52.508;13.468;2022-08-02T07:17:36;746.95;;;683.95;;
8562;SDS011;16392;52.508;13.468;2022-08-02T07:20:03;750.90;;;687.85;;
8562;SDS011;16392;52.508;13.468;2022-08-02T07:22:31;765.03;;;701.33;;
8562;SDS011;16392;52.508;13.468;2022-08-02T07:24:58;743.22;;;680.67;;
8562;SDS011;16392;52.508;13.468;2022-08-02T07:27:25;741.25;;;678.47;;
8562;SDS011;16392;52.508;13.468;2022-08-02T07:29:52;736.92;;;674.22;;
8562;SDS011;16392;52.508;13.468;2022-08-02T07:32:21;736.80;;;674.25;;
8562;SDS011;16392;52.508;13.468;2022-08-02T07:34:51;734.50;;;671.72;;
8562;SDS011;16392;52.508;13.468;2022-08-02T07:37:19;755.28;;;692.40;;
8562;SDS011;16392;52.508;13.468;2022-08-02T07:39:46;731.60;;;669.42;;
8562;SDS011;16392;52.508;13.468;2022-08-02T07:42:13;734.75;;;672.10;;
8562;SDS011;16392;52.508;13.468;2022-08-02T07:44:40;757.88;;;694.72;;
8562;SDS011;16392;52.508;13.468;2022-08-02T07:47:06;749.28;;;686.67;;
8562;SDS011;16392;52.508;13.468;2022-08-02T07:49:33;747.75;;;684.83;;
8562;SDS011;16392;52.508;13.468;2022-08-02T07:52:01;769.97;;;706.45;;
8562;SDS011;16392;52.508;13.468;2022-08-02T07:54:28;770.00;;;706.58;;
8562;SDS011;16392;52.508;13.468;2022-08-02T07:56:55;785.20;;;721.33;;
8562;SDS011;16392;52.508;13.468;2022-08-02T07:59:22;789.10;;;725.13;;
8562;SDS011;16392;52.508;13.468;2022-08-02T08:01:49;813.53;;;748.70;;
8562;SDS011;16392;52.508;13.468;2022-08-02T08:04:16;822.45;;;757.88;;
8562;SDS011;16392;52.508;13.468;2022-08-02T08:06:46;846.90;;;781.10;;
8562;SDS011;16392;52.508;13.468;2022-08-02T08:09:17;848.22;;;782.58;;
8562;SDS011;16392;52.508;13.468;2022-08-02T08:11:44;846.13;;;780.80;;
8562;SDS011;16392;52.508;13.468;2022-08-02T08:14:10;854.90;;;789.17;;
8562;SDS011;16392;52.508;13.468;2022-08-02T08:16:37;847.33;;;781.75;;
8562;SDS011;16392;52.508;13.468;2022-08-02T08:19:04;853.50;;;787.80;;
8562;SDS011;16392;52.508;13.468;2022-08-02T08:21:30;848.17;;;782.65;;
8562;SDS011;16392;52.508;13.468;2022-08-02T08:23:59;849.30;;;783.97;;
8562;SDS011;16392;52.508;13.468;2022-08-02T08:26:27;850.10;;;782.95;;
8562;SDS011;16392;52.508;13.468;2022-08-02T08:28:53;848.95;;;783.33;;
8562;SDS011;16392;52.508;13.468;2022-08-02T08:31:20;830.38;;;765.55;;
8562;SDS011;16392;52.508;13.468;2022-08-02T08:33:47;842.22;;;777.05;;
8562;SDS011;16392;52.508;13.468;2022-08-02T08:36:13;817.53;;;752.90;;
8562;SDS011;16392;52.508;13.468;2022-08-02T08:38:40;847.42;;;781.90;;
8562;SDS011;16392;52.508;13.468;2022-08-02T08:41:08;831.90;;;767.20;;
8562;SDS011;16392;52.508;13.468;2022-08-02T08:43:36;835.63;;;770.70;;
8562;SDS011;16392;52.508;13.468;2022-08-02T08:46:03;826.35;;;761.53;;
8562;SDS011;16392;52.508;13.468;2022-08-02T08:48:31;809.78;;;745.58;;
8562;SDS011;16392;52.508;13.468;2022-08-02T08:51:03;807.38;;;743.08;;
8562;SDS011;16392;52.508;13.468;2022-08-02T08:53:36;806.88;;;742.45;;
8562;SDS011;16392;52.508;13.468;2022-08-02T08:56:05;793.22;;;729.03;;
8562;SDS011;16392;52.508;13.468;2022-08-02T08:58:33;812.60;;;748.13;;
8562;SDS011;16392;52.508;13.468;2022-08-02T09:01:02;818.88;;;754.38;;
8562;SDS011;16392;52.508;13.468;2022-08-02T09:03:29;824.60;;;759.55;;
8562;SDS011;16392;52.508;13.468;2022-08-02T09:05:56;811.70;;;747.28;;
8562;SDS011;16392;52.508;13.468;2022-08-02T09:08:23;820.13;;;755.65;;
8562;SDS011;16392;52.508;13.468;2022-08-02T09:10:50;801.22;;;737.30;;
8562;SDS011;16392;52.508;13.468;2022-08-02T09:13:19;848.45;;;782.42;;
8562;SDS011;16392;52.508;13.468;2022-08-02T09:15:51;841.88;;;776.58;;
8562;SDS011;16392;52.508;13.468;2022-08-02T09:18:21;834.45;;;769.15;;
8562;SDS011;16392;52.508;13.468;2022-08-02T09:20:56;826.90;;;762.05;;
8562;SDS011;16392;52.508;13.468;2022-08-02T09:23:24;808.92;;;744.63;;
8562;SDS011;16392;52.508;13.468;2022-08-02T09:25:57;818.55;;;753.97;;
8562;SDS011;16392;52.508;13.468;2022-08-02T09:28:25;828.08;;;763.22;;
8562;SDS011;16392;52.508;13.468;2022-08-02T09:31:02;818.78;;;753.97;;
8562;SDS011;16392;52.508;13.468;2022-08-02T09:33:31;826.47;;;761.60;;
8562;SDS011;16392;52.508;13.468;2022-08-02T09:36:00;825.95;;;761.08;;
8562;SDS011;16392;52.508;13.468;2022-08-02T09:38:28;839.90;;;774.67;;
8562;SDS011;16392;52.508;13.468;2022-08-02T09:40:55;837.08;;;772.00;;
8562;SDS011;16392;52.508;13.468;2022-08-02T09:43:33;812.08;;;747.58;;
8562;SDS011;16392;52.508;13.468;2022-08-02T09:46:11;816.90;;;752.13;;
8562;SDS011;16392;52.508;13.468;2022-08-02T09:48:51;810.33;;;745.63;;
8562;SDS011;16392;52.508;13.468;2022-08-02T09:51:19;773.70;;;710.42;;
8562;SDS011;16392;52.508;13.468;2022-08-02T09:53:47;755.53;;;692.65;;
8562;SDS011;16392;52.508;13.468;2022-08-02T09:56:16;723.35;;;661.47;;
8562;SDS011;16392;52.508;13.468;2022-08-02T09:58:43;723.60;;;661.33;;
8562;SDS011;16392;52.508;13.468;2022-08-02T10:01:13;712.42;;;650.17;;
8562;SDS011;16392;52.508;13.468;2022-08-02T10:03:55;710.55;;;648.65;;
8562;SDS011;16392;52.508;13.468;2022-08-02T10:06:24;703.15;;;641.38;;
8562;SDS011;16392;52.508;13.468;2022-08-02T10:08:51;705.03;;;643.38;;
8562;SDS011;16392;52.508;13.468;2022-08-02T10:11:19;729.28;;;666.90;;
8562;SDS011;16392;52.508;13.468;2022-08-02T10:13:46;721.47;;;659.38;;
8562;SDS011;16392;52.508;13.468;2022-08-02T10:16:14;709.13;;;647.03;;
8562;SDS011;16392;52.508;13.468;2022-08-02T10:18:44;688.30;;;626.97;;
8562;SDS011;16392;52.508;13.468;2022-08-02T10:21:14;690.40;;;629.15;;
8562;SDS011;16392;52.508;13.468;2022-08-02T10:23:43;732.92;;;670.42;;
8562;SDS011;16392;52.508;13.468;2022-08-02T10:26:12;754.80;;;691.95;;
8562;SDS011;16392;52.508;13.468;2022-08-02T10:28:41;746.88;;;684.03;;
8562;SDS011;16392;52.508;13.468;2022-08-02T10:31:11;751.17;;;688.05;;
8562;SDS011;16392;52.508;13.468;2022-08-02T10:33:42;733.08;;;670.88;;
8562;SDS011;16392;52.508;13.468;2022-08-02T10:36:09;751.85;;;689.08;;
8562;SDS011;16392;52.508;13.468;2022-08-02T10:38:39;757.88;;;694.47;;
8562;SDS011;16392;52.508;13.468;2022-08-02T10:41:06;783.35;;;719.72;;
8562;SDS011;16392;52.508;13.468;2022-08-02T10:43:40;782.30;;;718.78;;
8562;SDS011;16392;52.508;13.468;2022-08-02T10:46:28;783.92;;;720.00;;
8562;SDS011;16392;52.508;13.468;2022-08-02T10:49:03;743.75;;;681.17;;
8562;SDS011;16392;52.508;13.468;2022-08-02T10:54:21;756.88;;;693.45;;
8562;SDS011;16392;52.508;13.468;2022-08-02T10:56:50;760.60;;;697.67;;
8562;SDS011;16392;52.508;13.468;2022-08-02T10:59:24;749.55;;;687.00;;
8562;SDS011;16392;52.508;13.468;2022-08-02T11:01:52;733.67;;;671.60;;
8562;SDS011;16392;52.508;13.468;2022-08-02T11:04:27;742.83;;;680.35;;
8562;SDS011;16392;52.508;13.468;2022-08-02T11:07:07;772.15;;;708.85;;
8562;SDS011;16392;52.508;13.468;2022-08-02T11:09:37;776.67;;;713.17;;
8562;SDS011;16392;52.508;13.468;2022-08-02T11:12:04;806.28;;;741.72;;
8562;SDS011;16392;52.508;13.468;2022-08-02T11:14:32;812.47;;;747.85;;
8562;SDS011;16392;52.508;13.468;2022-08-02T11:17:04;845.03;;;779.85;;
8562;SDS011;16392;52.508;13.468;2022-08-02T11:19:31;819.97;;;755.30;;
8562;SDS011;16392;52.508;13.468;2022-08-02T11:22:00;800.10;;;735.95;;
8562;SDS011;16392;52.508;13.468;2022-08-02T11:24:28;782.75;;;719.40;;
8562;SDS011;16392;52.508;13.468;2022-08-02T11:26:57;785.90;;;722.42;;
8562;SDS011;16392;52.508;13.468;2022-08-02T11:29:35;804.13;;;739.88;;
8562;SDS011;16392;52.508;13.468;2022-08-02T11:32:04;798.58;;;734.80;;
8562;SDS011;16392;52.508;13.468;2022-08-02T11:34:31;804.72;;;740.63;;
8562;SDS011;16392;52.508;13.468;2022-08-02T11:36:58;818.85;;;754.60;;
8562;SDS011;16392;52.508;13.468;2022-08-02T11:39:26;818.78;;;754.33;;
8562;SDS011;16392;52.508;13.468;2022-08-02T11:41:54;819.80;;;755.45;;
8562;SDS011;16392;52.508;13.468;2022-08-02T11:44:24;828.83;;;764.15;;
8562;SDS011;16392;52.508;13.468;2022-08-02T11:46:53;834.25;;;769.22;;
8562;SDS011;16392;52.508;13.468;2022-08-02T11:49:21;822.72;;;757.97;;
8562;SDS011;16392;52.508;13.468;2022-08-02T11:51:55;789.97;;;726.25;;
8562;SDS011;16392;52.508;13.468;2022-08-02T11:54:26;788.30;;;724.38;;
8562;SDS011;16392;52.508;13.468;2022-08-02T11:56:54;795.38;;;731.38;;
8562;SDS011;16392;52.508;13.468;2022-08-02T11:59:39;788.15;;;724.50;;
8562;SDS011;16392;52.508;13.468;2022-08-02T12:02:06;834.53;;;769.45;;
8562;SDS011;16392;52.508;13.468;2022-08-02T12:04:34;831.33;;;766.50;;
8562;SDS011;16392;52.508;13.468;2022-08-02T12:07:02;816.83;;;752.28;;
8562;SDS011;16392;52.508;13.468;2022-08-02T12:09:31;812.22;;;747.97;;
8562;SDS011;16392;52.508;13.468;2022-08-02T12:11:59;818.88;;;754.30;;
8562;SDS011;16392;52.508;13.468;2022-08-02T12:14:27;784.92;;;721.50;;
8562;SDS011;16392;52.508;13.468;2022-08-02T12:16:56;796.38;;;732.38;;
8562;SDS011;16392;52.508;13.468;2022-08-02T12:19:41;780.30;;;717.08;;
8562;SDS011;16392;52.508;13.468;2022-08-02T12:22:09;805.08;;;740.83;;
8562;SDS011;16392;52.508;13.468;2022-08-02T12:24:42;841.90;;;776.17;;
8562;SDS011;16392;52.508;13.468;2022-08-02T12:27:26;829.92;;;765.17;;
8562;SDS011;16392;52.508;13.468;2022-08-02T12:29:57;854.92;;;789.03;;
8562;SDS011;16392;52.508;13.468;2022-08-02T12:32:27;855.67;;;790.20;;
8562;SDS011;16392;52.508;13.468;2022-08-02T12:35:00;828.38;;;763.80;;
8562;SDS011;16392;52.508;13.468;2022-08-02T12:37:29;829.38;;;764.55;;
8562;SDS011;16392;52.508;13.468;2022-08-02T12:39:56;821.42;;;756.58;;
8562;SDS011;16392;52.508;13.468;2022-08-02T12:42:24;805.88;;;741.60;;
8562;SDS011;16392;52.508;13.468;2022-08-02T12:44:51;822.17;;;757.65;;
8562;SDS011;16392;52.508;13.468;2022-08-02T12:47:20;829.30;;;764.53;;
8562;SDS011;16392;52.508;13.468;2022-08-02T12:52:41;829.55;;;764.65;;
8562;SDS011;16392;52.508;13.468;2022-08-02T12:55:18;864.67;;;798.72;;
8562;SDS011;16392;52.508;13.468;2022-08-02T12:57:53;889.60;;;822.78;;
8562;SDS011;16392;52.508;13.468;2022-08-02T13:00:22;887.85;;;821.13;;
8562;SDS011;16392;52.508;13.468;2022-08-02T13:02:50;897.17;;;830.28;;
8562;SDS011;16392;52.508;13.468;2022-08-02T13:05:18;880.20;;;813.65;;
8562;SDS011;16392;52.508;13.468;2022-08-02T13:07:45;880.53;;;813.85;;
8562;SDS011;16392;52.508;13.468;2022-08-02T13:10:15;905.72;;;838.55;;
8562;SDS011;16392;52.508;13.468;2022-08-02T13:12:42;904.17;;;837.20;;
8562;SDS011;16392;52.508;13.468;2022-08-02T13:15:09;879.10;;;812.95;;
8562;SDS011;16392;52.508;13.468;2022-08-02T13:17:36;877.08;;;810.40;;
8562;SDS011;16392;52.508;13.468;2022-08-02T13:20:04;858.13;;;792.40;;
8562;SDS011;16392;52.508;13.468;2022-08-02T13:22:33;842.30;;;777.20;;
8562;SDS011;16392;52.508;13.468;2022-08-02T13:25:00;877.22;;;810.85;;
8562;SDS011;16392;52.508;13.468;2022-08-02T13:27:27;883.50;;;816.95;;
8562;SDS011;16392;52.508;13.468;2022-08-02T13:29:54;895.80;;;828.65;;
8562;SDS011;16392;52.508;13.468;2022-08-02T13:32:22;896.55;;;829.60;;
8562;SDS011;16392;52.508;13.468;2022-08-02T13:34:50;869.92;;;804.05;;
8562;SDS011;16392;52.508;13.468;2022-08-02T13:37:16;865.88;;;800.20;;
8562;SDS011;16392;52.508;13.468;2022-08-02T13:39:45;857.65;;;791.95;;
8562;SDS011;16392;52.508;13.468;2022-08-02T13:42:12;859.72;;;794.05;;
8562;SDS011;16392;52.508;13.468;2022-08-02T13:44:39;862.72;;;797.20;;
8562;SDS011;16392;52.508;13.468;2022-08-02T13:47:05;877.05;;;810.95;;
8562;SDS011;16392;52.508;13.468;2022-08-02T13:49:35;849.95;;;784.45;;
8562;SDS011;16392;52.508;13.468;2022-08-02T13:52:02;843.88;;;778.35;;
8562;SDS011;16392;52.508;13.468;2022-08-02T13:54:30;843.35;;;777.63;;
8562;SDS011;16392;52.508;13.468;2022-08-02T13:56:59;834.55;;;769.08;;
8562;SDS011;16392;52.508;13.468;2022-08-02T13:59:26;820.33;;;755.47;;
8562;SDS011;16392;52.508;13.468;2022-08-02T14:01:53;811.08;;;746.75;;
8562;SDS011;16392;52.508;13.468;2022-08-02T14:04:20;822.65;;;757.97;;
8562;SDS011;16392;52.508;13.468;2022-08-02T14:06:47;818.30;;;753.80;;
8562;SDS011;16392;52.508;13.468;2022-08-02T14:09:14;793.08;;;729.33;;
8562;SDS011;16392;52.508;13.468;2022-08-02T14:11:42;838.03;;;772.63;;